createdAt,value
2019-06-15T00:02:22.394Z,3.17
2019-06-15T00:04:57.291Z,2.27
2019-06-15T00:42:56.959Z,2.40
2019-06-15T00:49:02.753Z,2.23
2019-06-15T01:00:30.643Z,1.97
2019-06-15T01:03:32.710Z,2.97
2019-06-15T01:06:09.386Z,2.07
2019-06-15T01:08:44.214Z,2.40
2019-06-15T01:11:15.287Z,2.20
2019-06-15T01:16:30.503Z,2.17
2019-06-15T01:19:01.911Z,1.77
2019-06-15T01:21:35.158Z,2.30
2019-06-15T01:24:07.496Z,2.00
2019-06-15T01:26:38.345Z,1.90
2019-06-15T01:29:10.337Z,2.13
2019-06-15T01:31:39.637Z,2.00
2019-06-15T01:34:11.827Z,2.17
2019-06-15T01:36:41.492Z,2.00
2019-06-15T01:39:12.955Z,2.47
2019-06-15T01:41:43.401Z,1.87
2019-06-15T01:44:12.861Z,1.83
2019-06-15T01:46:42.097Z,2.10
2019-06-15T01:49:11.540Z,2.30
2019-06-15T01:51:42.727Z,1.40
2019-06-15T01:57:08.898Z,2.20
2019-06-15T02:03:27.921Z,2.00
2019-06-15T02:09:08.876Z,2.40
2019-06-15T02:11:41.407Z,2.20
2019-06-15T02:14:10.743Z,1.93
2019-06-15T02:26:38.085Z,2.20
2019-06-15T02:29:32.430Z,1.93
2019-06-15T02:32:08.456Z,2.00
2019-06-15T02:34:46.928Z,2.20
2019-06-15T02:37:15.853Z,2.30
2019-06-15T02:39:45.911Z,1.77
2019-06-15T02:42:17.397Z,2.10
2019-06-15T02:44:51.268Z,2.00
2019-06-15T02:47:20.504Z,1.80
2019-06-15T02:49:49.994Z,2.20
2019-06-15T02:52:20.505Z,2.83
2019-06-15T02:54:49.742Z,1.60
2019-06-15T02:57:19.001Z,2.40
2019-06-15T02:59:49.068Z,1.63
2019-06-15T03:02:19.130Z,2.07
2019-06-15T03:05:05.312Z,1.83
2019-06-15T03:11:08.954Z,2.23
2019-06-15T03:13:40.663Z,2.90
2019-06-15T03:16:12.152Z,2.60
2019-06-15T03:18:48.546Z,2.60
2019-06-15T03:21:17.958Z,2.30
2019-06-15T03:23:49.985Z,2.73
2019-06-15T03:26:25.887Z,2.67
2019-06-15T03:28:56.477Z,2.00
2019-06-15T03:31:26.185Z,2.30
2019-06-15T03:33:56.864Z,2.20
2019-06-15T03:36:29.320Z,2.73
2019-06-15T03:39:00.105Z,2.60
2019-06-15T03:41:29.537Z,2.10
2019-06-15T03:43:58.848Z,2.67
2019-06-15T03:46:28.240Z,2.23
2019-06-15T03:48:57.651Z,2.20
2019-06-15T03:51:27.027Z,2.40
2019-06-15T03:54:03.320Z,2.30
2019-06-15T03:56:33.974Z,2.47
2019-06-15T03:59:06.888Z,2.47
2019-06-15T04:01:52.315Z,2.40
2019-06-15T04:04:23.505Z,2.40
2019-06-15T04:06:55.050Z,2.87
2019-06-15T04:09:25.648Z,1.90
2019-06-15T04:11:54.979Z,2.73
2019-06-15T04:14:24.317Z,2.17
2019-06-15T04:16:53.810Z,2.77
2019-06-15T04:19:25.667Z,2.50
2019-06-15T04:22:07.781Z,2.40
2019-06-15T04:24:34.101Z,2.10
2019-06-15T04:27:05.937Z,2.17
2019-06-15T04:29:38.569Z,1.90
2019-06-15T04:32:09.101Z,2.00
2019-06-15T04:34:39.616Z,2.03
2019-06-15T04:37:09.605Z,2.13
2019-06-15T04:39:39.036Z,2.47
2019-06-15T04:42:09.542Z,1.93
2019-06-15T04:44:38.969Z,2.00
2019-06-15T04:47:13.096Z,2.60
2019-06-15T04:49:50.845Z,3.50
2019-06-15T04:52:22.329Z,2.97
2019-06-15T04:54:54.387Z,3.00
2019-06-15T04:57:23.731Z,2.60
2019-06-15T05:00:03.139Z,2.30
2019-06-15T05:02:33.807Z,3.03
2019-06-15T05:05:17.138Z,2.53
2019-06-15T05:07:47.383Z,2.80
2019-06-15T05:10:17.398Z,1.70
2019-06-15T05:12:46.643Z,2.40
2019-06-15T05:15:15.899Z,2.90
2019-06-15T05:17:46.356Z,2.53
2019-06-15T05:20:15.668Z,2.60
2019-06-15T05:22:44.947Z,2.30
2019-06-15T05:25:15.865Z,2.40
2019-06-15T05:27:45.150Z,2.73
2019-06-15T05:30:15.716Z,2.30
2019-06-15T05:32:46.631Z,2.60
2019-06-15T05:35:16.108Z,2.37
2019-06-15T05:37:48.607Z,2.20
2019-06-15T05:56:25.739Z,2.30
2019-06-15T05:58:55.169Z,3.47
2019-06-15T06:01:26.028Z,2.50
2019-06-15T06:12:48.000Z,2.70
2019-06-15T06:13:13.237Z,3.13
2019-06-15T06:15:56.115Z,3.83
2019-06-15T06:27:40.081Z,2.90
2019-06-15T06:30:14.513Z,3.20
2019-06-15T06:32:56.885Z,2.00
2019-06-15T06:35:27.967Z,2.93
2019-06-15T06:37:58.075Z,2.73
2019-06-15T06:40:27.976Z,3.43
2019-06-15T06:42:58.000Z,2.73
2019-06-15T06:45:27.288Z,2.93
2019-06-15T06:52:07.428Z,2.53
2019-06-15T07:13:18.737Z,1.50
2019-06-15T07:15:49.671Z,1.53
2019-06-15T07:18:32.460Z,1.60
2019-06-15T07:20:57.130Z,1.60
2019-06-15T07:23:31.087Z,1.87
2019-06-15T07:25:59.779Z,1.47
2019-06-15T07:28:29.101Z,1.20
2019-06-15T07:31:00.368Z,1.47
2019-06-15T07:33:31.413Z,1.97
2019-06-15T07:36:02.354Z,1.50
2019-06-15T07:38:34.086Z,1.50
2019-06-15T07:41:05.165Z,1.20
2019-06-15T07:43:36.351Z,1.67
2019-06-15T07:46:05.656Z,1.47
2019-06-15T07:48:34.890Z,1.57
2019-06-15T07:51:05.505Z,1.47
2019-06-15T07:53:35.536Z,2.40
2019-06-15T07:56:07.654Z,1.30
2019-06-15T07:58:36.904Z,1.20
2019-06-15T08:01:07.700Z,1.23
2019-06-15T08:03:43.241Z,0.90
2019-06-15T08:06:11.166Z,1.20
2019-06-15T08:08:40.445Z,1.00
2019-06-15T08:11:09.645Z,1.13
2019-06-15T08:13:44.147Z,0.83
2019-06-15T08:16:13.383Z,1.27
2019-06-15T08:18:44.152Z,1.20
2019-06-15T08:21:15.946Z,0.80
2019-06-15T08:23:48.639Z,1.00
2019-06-15T08:26:19.462Z,0.97
2019-06-15T08:28:56.127Z,1.80
2019-06-15T08:31:24.529Z,1.33
2019-06-15T08:33:54.142Z,1.00
2019-06-15T08:36:26.700Z,0.70
2019-06-15T08:38:56.592Z,1.10
2019-06-15T08:41:28.582Z,0.80
2019-06-15T08:43:57.707Z,0.90
2019-06-15T08:46:27.236Z,0.80
2019-06-15T08:48:56.454Z,1.80
2019-06-15T08:51:25.792Z,0.83
2019-06-15T08:53:55.062Z,0.70
2019-06-15T08:56:24.294Z,0.90
2019-06-15T08:58:55.781Z,1.20
2019-06-15T09:01:25.916Z,1.10
2019-06-15T09:03:56.630Z,0.80
2019-06-15T09:06:28.953Z,1.77
2019-06-15T09:08:58.274Z,1.90
2019-06-15T09:11:27.511Z,0.80
2019-06-15T09:13:57.326Z,0.90
2019-06-15T09:16:26.629Z,0.63
2019-06-15T09:18:57.561Z,0.60
2019-06-15T09:21:28.203Z,0.80
2019-06-15T09:23:59.706Z,1.77
2019-06-15T09:26:28.913Z,0.90
2019-06-15T09:29:10.315Z,1.40
2019-06-15T09:31:30.421Z,0.87
2019-06-15T09:33:59.882Z,1.60
2019-06-15T09:36:29.094Z,0.73
2019-06-15T09:39:00.105Z,0.80
2019-06-15T09:41:30.474Z,0.80
2019-06-15T09:44:02.161Z,0.60
2019-06-15T09:46:31.346Z,0.73
2019-06-15T09:49:01.873Z,0.70
2019-06-15T09:51:34.391Z,3.40
2019-06-15T09:54:05.044Z,2.00
2019-06-15T09:56:35.359Z,2.57
2019-06-15T09:59:04.682Z,1.40
2019-06-15T10:01:37.422Z,0.97
2019-06-15T10:04:09.851Z,1.10
2019-06-15T10:06:39.014Z,1.17
2019-06-15T10:09:08.315Z,0.80
2019-06-15T10:11:48.723Z,1.63
2019-06-15T10:14:22.640Z,1.00
2019-06-15T10:16:54.402Z,1.03
2019-06-15T10:19:30.825Z,1.30
2019-06-15T10:22:01.591Z,1.27
2019-06-15T10:24:31.858Z,1.80
2019-06-15T10:27:01.044Z,1.10
2019-06-15T10:29:41.724Z,1.37
2019-06-15T10:32:01.286Z,1.07
2019-06-15T10:34:32.236Z,0.77
2019-06-15T10:37:01.752Z,1.00
2019-06-15T10:39:32.496Z,1.40
2019-06-15T10:42:01.901Z,0.90
2019-06-15T10:44:31.585Z,1.43
2019-06-15T10:47:00.997Z,1.30
2019-06-15T10:49:30.317Z,1.60
2019-06-15T10:52:00.143Z,1.10
2019-06-15T10:54:30.642Z,1.33
2019-06-15T10:57:00.022Z,1.93
2019-06-15T10:59:29.308Z,1.57
2019-06-15T11:01:58.729Z,1.30
2019-06-15T11:04:28.087Z,1.27
2019-06-15T11:06:57.841Z,1.33
2019-06-15T11:09:27.372Z,1.30
2019-06-15T11:11:57.203Z,1.00
2019-06-15T11:14:26.676Z,1.00
2019-06-15T11:16:55.905Z,1.93
2019-06-15T11:19:25.143Z,1.30
2019-06-15T11:21:54.476Z,1.57
2019-06-15T11:24:45.393Z,1.00
2019-06-15T11:27:15.236Z,1.00
2019-06-15T11:29:44.434Z,1.10
2019-06-15T11:32:29.799Z,1.30
2019-06-15T11:35:13.856Z,1.50
2019-06-15T11:38:00.880Z,0.80
2019-06-15T11:40:30.109Z,1.90
2019-06-15T11:43:00.711Z,0.70
2019-06-15T11:45:30.816Z,0.77
2019-06-15T11:48:00.012Z,1.30
2019-06-15T11:50:29.319Z,1.37
2019-06-15T11:52:58.518Z,1.00
2019-06-15T11:55:39.010Z,0.80
2019-06-15T11:58:02.616Z,0.60
2019-06-15T12:00:53.751Z,0.83
2019-06-15T12:03:44.005Z,1.30
2019-06-15T12:09:43.051Z,0.90
2019-06-15T12:15:20.584Z,1.10
2019-06-15T12:17:52.036Z,1.17
2019-06-15T12:20:31.428Z,1.03
2019-06-15T12:23:20.801Z,0.67
2019-06-15T12:26:00.723Z,1.27
2019-06-15T12:28:41.424Z,1.43
2019-06-15T12:31:18.337Z,1.23
2019-06-15T12:34:03.296Z,1.23
2019-06-15T12:36:39.605Z,1.20
2019-06-15T12:39:28.778Z,0.80
2019-06-15T12:41:58.127Z,0.70
2019-06-15T12:44:39.155Z,0.77
2019-06-15T12:47:25.386Z,1.40
2019-06-15T12:49:56.043Z,1.13
2019-06-15T12:52:25.465Z,1.00
2019-06-15T12:55:04.993Z,0.83
2019-06-15T12:57:52.788Z,1.10
2019-06-15T13:00:41.263Z,0.70
2019-06-15T13:03:05.207Z,0.90
2019-06-15T13:05:34.602Z,1.17
2019-06-15T13:08:04.025Z,0.93
2019-06-15T13:10:33.399Z,1.10
2019-06-15T13:13:02.801Z,1.00
2019-06-15T13:15:33.660Z,1.13
2019-06-15T13:18:03.370Z,0.70
2019-06-15T13:20:32.732Z,0.80
2019-06-15T13:23:02.159Z,0.80
2019-06-15T13:25:31.498Z,0.70
2019-06-15T13:28:00.837Z,0.90
2019-06-15T13:30:30.365Z,0.73
2019-06-15T13:32:59.856Z,0.93
2019-06-15T13:35:29.358Z,0.90
2019-06-15T13:37:59.073Z,0.97
2019-06-15T13:40:28.370Z,0.60
2019-06-15T13:42:57.603Z,0.73
2019-06-15T13:45:28.293Z,0.93
2019-06-15T13:48:00.339Z,0.77
2019-06-15T13:50:29.751Z,1.63
2019-06-15T13:53:05.462Z,1.20
2019-06-15T13:55:36.127Z,1.40
2019-06-15T14:01:34.052Z,0.90
2019-06-15T14:03:56.486Z,0.57
2019-06-15T14:06:30.051Z,0.60
2019-06-15T14:09:05.228Z,0.70
2019-06-15T14:11:37.075Z,0.83
2019-06-15T14:14:08.449Z,0.77
2019-06-15T14:16:39.549Z,1.37
2019-06-15T14:19:09.191Z,1.90
2019-06-15T14:21:42.897Z,0.90
2019-06-15T14:24:13.597Z,0.53
2019-06-15T14:26:42.811Z,0.87
2019-06-15T14:29:17.350Z,1.20
2019-06-15T14:31:50.556Z,1.10
2019-06-15T14:34:21.712Z,1.00
2019-06-15T14:36:51.748Z,1.23
2019-06-15T14:39:23.145Z,0.70
2019-06-15T14:41:56.649Z,0.80
2019-06-15T14:44:26.777Z,1.03
2019-06-15T14:46:56.087Z,1.20
2019-06-15T14:49:27.893Z,0.53
2019-06-15T14:51:57.487Z,0.80
2019-06-15T14:54:28.599Z,0.67
2019-06-15T14:56:59.873Z,0.60
2019-06-15T14:59:30.574Z,0.73
2019-06-15T15:02:10.100Z,0.70
2019-06-15T15:04:32.862Z,0.77
2019-06-15T15:07:03.536Z,0.57
2019-06-15T15:09:35.203Z,0.70
2019-06-15T15:12:06.878Z,0.80
2019-06-15T15:14:36.651Z,0.77
2019-06-15T15:17:07.988Z,0.83
2019-06-15T15:19:40.783Z,0.70
2019-06-15T15:22:20.359Z,0.70
2019-06-15T15:24:56.380Z,1.00
2019-06-15T15:27:29.856Z,0.70
2019-06-15T15:29:59.834Z,1.20
2019-06-15T15:32:31.824Z,1.10
2019-06-15T15:35:03.088Z,0.90
2019-06-15T15:37:37.360Z,0.83
2019-06-15T15:40:16.609Z,1.30
2019-06-15T15:42:47.482Z,1.27
2019-06-15T15:45:18.893Z,0.87
2019-06-15T15:47:49.082Z,1.43
2019-06-15T15:50:18.296Z,1.43
2019-06-15T15:52:53.377Z,0.90
2019-06-15T15:55:26.346Z,1.00
2019-06-15T15:57:57.298Z,0.77
2019-06-15T16:00:36.217Z,1.70
2019-06-15T16:03:08.132Z,1.10
2019-06-15T16:05:38.693Z,1.13
2019-06-15T16:08:09.346Z,0.90
2019-06-15T16:10:42.419Z,1.27
2019-06-15T16:13:13.658Z,0.90
2019-06-15T16:15:46.129Z,1.20
2019-06-15T16:18:17.417Z,1.93
2019-06-15T16:20:47.499Z,1.13
2019-06-15T16:23:19.512Z,1.33
2019-06-15T16:25:52.372Z,1.10
2019-06-15T16:28:26.397Z,1.10
2019-06-15T16:31:12.128Z,1.10
2019-06-15T16:33:37.288Z,0.90
2019-06-15T16:36:08.568Z,1.00
2019-06-15T16:38:39.332Z,0.80
2019-06-15T16:41:09.020Z,1.13
2019-06-15T16:43:40.579Z,0.60
2019-06-15T16:46:12.132Z,0.90
2019-06-15T16:48:42.858Z,1.40
2019-06-15T16:51:13.845Z,1.50
2019-06-15T16:53:47.358Z,1.47
2019-06-15T16:56:18.365Z,1.00
2019-06-15T16:58:50.104Z,0.97
2019-06-15T17:01:22.049Z,1.40
2019-06-15T17:03:56.937Z,1.37
2019-06-15T17:06:28.827Z,1.37
2019-06-15T17:08:59.487Z,1.30
2019-06-15T17:11:30.413Z,1.37
2019-06-15T17:14:12.541Z,0.70
2019-06-15T17:16:42.801Z,1.00
2019-06-15T17:19:18.763Z,1.10
2019-06-15T17:21:50.215Z,1.10
2019-06-15T17:24:23.241Z,1.40
2019-06-15T17:26:57.330Z,1.70
2019-06-15T17:29:29.008Z,1.07
2019-06-15T17:32:00.776Z,1.23
2019-06-15T17:34:30.539Z,1.10
2019-06-15T17:39:57.302Z,1.20
2019-06-15T17:42:30.074Z,1.57
2019-06-15T17:45:01.762Z,1.53
2019-06-15T17:47:36.265Z,1.63
2019-06-15T17:50:08.927Z,1.60
2019-06-15T17:52:40.952Z,1.47
2019-06-15T17:55:12.752Z,1.30
2019-06-15T17:57:46.589Z,1.47
2019-06-15T18:00:29.533Z,1.30
2019-06-15T18:03:02.093Z,1.43
2019-06-15T18:05:37.020Z,1.53
2019-06-15T18:08:07.597Z,1.10
2019-06-15T18:10:39.733Z,1.30
2019-06-15T18:13:18.664Z,1.20
2019-06-15T18:15:50.445Z,1.53
2019-06-15T18:18:24.457Z,1.90
2019-06-15T18:20:56.713Z,1.13
2019-06-15T18:26:21.566Z,1.77
2019-06-15T18:28:52.251Z,2.00
2019-06-15T18:31:21.617Z,1.90
2019-06-15T18:34:06.539Z,1.60
2019-06-15T18:36:31.214Z,1.43
2019-06-15T18:39:01.616Z,1.93
2019-06-15T18:41:32.659Z,1.37
2019-06-15T18:44:02.449Z,1.90
2019-06-15T18:46:36.795Z,1.60
2019-06-15T18:49:07.666Z,1.40
2019-06-15T18:51:36.869Z,2.63
2019-06-15T18:54:15.843Z,1.23
2019-06-15T18:56:45.960Z,1.60
2019-06-15T18:59:17.022Z,1.67
2019-06-15T19:01:49.404Z,1.70
2019-06-15T19:04:27.032Z,1.67
2019-06-15T19:06:53.107Z,1.83
2019-06-15T19:09:23.448Z,1.80
2019-06-15T19:11:53.623Z,2.10
2019-06-15T19:14:22.849Z,2.30
2019-06-15T19:16:56.634Z,1.90
2019-06-15T19:19:29.900Z,1.80
2019-06-15T19:22:02.525Z,2.60
2019-06-15T19:24:36.698Z,2.10
2019-06-15T19:27:08.397Z,1.70
2019-06-15T19:29:40.925Z,1.77
2019-06-15T19:32:12.081Z,2.13
2019-06-15T19:34:48.764Z,2.00
2019-06-15T19:37:17.672Z,1.70
2019-06-15T19:39:46.967Z,2.63
2019-06-15T19:42:21.055Z,2.17
2019-06-15T19:47:46.978Z,2.30
2019-06-15T19:50:18.713Z,2.50
2019-06-15T19:52:50.808Z,2.47
2019-06-15T19:55:22.551Z,2.00
2019-06-15T19:57:53.263Z,2.57
2019-06-15T20:00:27.019Z,2.80
2019-06-15T20:02:57.258Z,3.07
2019-06-15T20:05:28.940Z,2.60
2019-06-15T20:07:58.345Z,2.73
2019-06-15T20:10:27.545Z,2.37
2019-06-15T20:12:56.799Z,2.30
2019-06-15T20:15:27.888Z,2.27
2019-06-15T20:17:57.239Z,2.87
2019-06-15T20:20:29.057Z,3.07
2019-06-15T20:23:00.327Z,2.90
2019-06-15T20:25:30.295Z,2.80
2019-06-15T20:28:01.635Z,3.27
2019-06-15T20:30:32.625Z,2.77
2019-06-15T20:33:02.945Z,2.97
2019-06-15T20:35:32.613Z,2.70
2019-06-15T20:38:02.880Z,2.63
2019-06-15T20:40:36.619Z,3.00
2019-06-15T20:43:07.819Z,3.50
2019-06-15T20:45:38.963Z,3.13
2019-06-15T20:48:13.306Z,3.50
2019-06-15T20:50:46.933Z,3.20
2019-06-15T20:53:17.994Z,2.77
2019-06-15T20:55:48.220Z,3.20
2019-06-15T20:58:26.378Z,2.40
2019-06-15T21:00:57.191Z,2.33
2019-06-15T21:03:28.375Z,2.27
2019-06-15T21:06:00.070Z,2.20
2019-06-15T21:08:31.683Z,2.90
2019-06-15T21:11:07.064Z,2.17
2019-06-15T21:13:37.495Z,3.00
2019-06-15T21:16:12.679Z,2.17
2019-06-15T21:21:33.314Z,2.57
2019-06-15T21:24:06.355Z,2.37
2019-06-15T21:26:39.749Z,2.67
2019-06-15T21:29:16.590Z,2.40
2019-06-15T21:31:46.727Z,2.20
2019-06-15T21:34:18.950Z,2.70
2019-06-15T21:36:53.750Z,2.50
2019-06-15T21:39:27.014Z,2.20
2019-06-15T21:41:59.187Z,2.33
2019-06-15T21:44:30.557Z,2.70
2019-06-15T21:47:02.212Z,2.70
2019-06-15T21:49:35.848Z,2.93
2019-06-15T21:52:07.243Z,3.13
2019-06-15T21:54:38.286Z,2.67
2019-06-15T21:57:09.422Z,2.27
2019-06-15T21:59:40.511Z,2.47
2019-06-15T22:02:09.695Z,2.83
2019-06-15T22:04:40.226Z,2.80
2019-06-15T22:07:11.739Z,2.60
2019-06-15T22:09:46.753Z,2.83
2019-06-15T22:12:19.524Z,2.93
2019-06-15T22:14:51.847Z,3.20
2019-06-15T22:17:21.479Z,2.63
2019-06-15T22:19:54.040Z,3.37
2019-06-15T22:22:27.156Z,3.27
2019-06-15T22:24:57.893Z,2.57
2019-06-15T22:27:29.694Z,3.17
2019-06-15T22:30:00.993Z,2.77
2019-06-15T22:32:31.741Z,2.77
2019-06-15T22:35:06.942Z,2.40
2019-06-15T22:37:36.229Z,2.80
2019-06-15T22:40:11.447Z,2.83
2019-06-15T22:42:43.337Z,3.60
2019-06-15T22:45:13.264Z,3.73
2019-06-15T22:47:46.618Z,3.27
2019-06-15T22:50:16.210Z,2.70
2019-06-15T22:52:47.285Z,2.83
2019-06-15T22:55:19.651Z,2.97
2019-06-15T22:57:53.387Z,2.77
2019-06-15T23:00:26.424Z,2.67
2019-06-15T23:02:57.074Z,3.50
2019-06-15T23:05:27.959Z,3.47
2019-06-15T23:08:00.736Z,4.07
2019-06-15T23:10:30.025Z,3.50
2019-06-15T23:13:06.308Z,3.43
2019-06-15T23:15:37.129Z,3.20
2019-06-15T23:18:07.934Z,3.37
2019-06-15T23:20:37.566Z,2.70
2019-06-15T23:23:11.163Z,3.50
2019-06-15T23:25:43.738Z,3.30
2019-06-15T23:28:16.694Z,3.23
2019-06-15T23:30:48.477Z,3.40
2019-06-15T23:33:26.399Z,2.97
2019-06-15T23:35:58.631Z,2.90
2019-06-15T23:38:29.828Z,3.20
2019-06-15T23:41:00.902Z,3.10
2019-06-15T23:43:31.743Z,3.47
2019-06-15T23:46:06.622Z,3.30
2019-06-15T23:48:36.561Z,3.63
2019-06-15T23:51:09.666Z,3.37
2019-06-15T23:53:40.506Z,3.07
2019-06-15T23:56:12.514Z,2.90
2019-06-15T23:58:46.335Z,2.90
